sensor_id;sensor_type;location;lat;lon;timestamp;P1;durP1;ratioP1;P2;durP2;ratioP2
24151;SDS011;12311;50.866;4.332;2023-06-24T00:00:55;3.85;;;1.60;;
24151;SDS011;12311;50.866;4.332;2023-06-24T00:03:21;1.75;;;1.02;;
24151;SDS011;12311;50.866;4.332;2023-06-24T00:05:47;3.53;;;1.25;;
24151;SDS011;12311;50.866;4.332;2023-06-24T00:08:17;3.08;;;1.23;;
24151;SDS011;12311;50.866;4.332;2023-06-24T00:10:47;2.17;;;1.30;;
24151;SDS011;12311;50.866;4.332;2023-06-24T00:13:16;9.63;;;1.30;;
24151;SDS011;12311;50.866;4.332;2023-06-24T00:15:42;5.65;;;1.48;;
24151;SDS011;12311;50.866;4.332;2023-06-24T00:18:09;3.28;;;1.50;;
24151;SDS011;12311;50.866;4.332;2023-06-24T00:20:35;4.25;;;1.20;;
24151;SDS011;12311;50.866;4.332;2023-06-24T00:23:00;2.15;;;1.15;;
24151;SDS011;12311;50.866;4.332;2023-06-24T00:25:26;2.33;;;1.30;;
24151;SDS011;12311;50.866;4.332;2023-06-24T00:27:52;2.55;;;1.20;;
24151;SDS011;12311;50.866;4.332;2023-06-24T00:30:18;5.80;;;1.10;;
24151;SDS011;12311;50.866;4.332;2023-06-24T00:32:43;1.95;;;1.05;;
24151;SDS011;12311;50.866;4.332;2023-06-24T00:35:09;2.67;;;1.10;;
24151;SDS011;12311;50.866;4.332;2023-06-24T00:37:39;2.50;;;1.38;;
24151;SDS011;12311;50.866;4.332;2023-06-24T00:40:05;1.55;;;1.08;;
24151;SDS011;12311;50.866;4.332;2023-06-24T00:42:35;1.98;;;1.02;;
24151;SDS011;12311;50.866;4.332;2023-06-24T00:45:01;2.42;;;1.02;;
24151;SDS011;12311;50.866;4.332;2023-06-24T00:47:29;2.80;;;1.13;;
24151;SDS011;12311;50.866;4.332;2023-06-24T00:49:56;1.40;;;0.68;;
24151;SDS011;12311;50.866;4.332;2023-06-24T00:52:22;2.67;;;1.10;;
24151;SDS011;12311;50.866;4.332;2023-06-24T00:54:48;2.90;;;1.48;;
24151;SDS011;12311;50.866;4.332;2023-06-24T00:57:14;2.42;;;1.08;;
24151;SDS011;12311;50.866;4.332;2023-06-24T00:59:42;1.38;;;0.90;;
24151;SDS011;12311;50.866;4.332;2023-06-24T01:02:10;3.45;;;1.48;;
24151;SDS011;12311;50.866;4.332;2023-06-24T01:04:36;2.22;;;1.35;;
24151;SDS011;12311;50.866;4.332;2023-06-24T01:07:03;4.28;;;1.35;;
24151;SDS011;12311;50.866;4.332;2023-06-24T01:09:30;1.67;;;1.20;;
24151;SDS011;12311;50.866;4.332;2023-06-24T01:11:56;3.10;;;1.50;;
24151;SDS011;12311;50.866;4.332;2023-06-24T01:14:22;3.75;;;1.63;;
24151;SDS011;12311;50.866;4.332;2023-06-24T01:20:23;2.13;;;1.20;;
24151;SDS011;12311;50.866;4.332;2023-06-24T01:25:13;2.83;;;1.67;;
24151;SDS011;12311;50.866;4.332;2023-06-24T01:33:52;4.70;;;1.73;;
24151;SDS011;12311;50.866;4.332;2023-06-24T01:36:25;4.25;;;1.90;;
24151;SDS011;12311;50.866;4.332;2023-06-24T01:38:55;3.85;;;1.75;;
24151;SDS011;12311;50.866;4.332;2023-06-24T01:41:26;3.10;;;1.55;;
24151;SDS011;12311;50.866;4.332;2023-06-24T01:44:05;3.50;;;1.45;;
24151;SDS011;12311;50.866;4.332;2023-06-24T01:46:35;3.40;;;1.40;;
24151;SDS011;12311;50.866;4.332;2023-06-24T01:49:02;5.35;;;1.65;;
24151;SDS011;12311;50.866;4.332;2023-06-24T01:51:32;3.78;;;1.73;;
24151;SDS011;12311;50.866;4.332;2023-06-24T01:54:02;4.70;;;1.70;;
24151;SDS011;12311;50.866;4.332;2023-06-24T01:56:30;3.70;;;1.77;;
24151;SDS011;12311;50.866;4.332;2023-06-24T01:59:00;2.45;;;1.35;;
24151;SDS011;12311;50.866;4.332;2023-06-24T02:01:28;3.45;;;1.42;;
24151;SDS011;12311;50.866;4.332;2023-06-24T02:03:57;3.72;;;1.88;;
24151;SDS011;12311;50.866;4.332;2023-06-24T02:06:24;3.35;;;1.75;;
24151;SDS011;12311;50.866;4.332;2023-06-24T02:08:53;6.05;;;1.48;;
24151;SDS011;12311;50.866;4.332;2023-06-24T02:11:20;4.32;;;1.58;;
24151;SDS011;12311;50.866;4.332;2023-06-24T02:13:48;2.13;;;1.35;;
24151;SDS011;12311;50.866;4.332;2023-06-24T02:16:15;3.72;;;1.30;;
24151;SDS011;12311;50.866;4.332;2023-06-24T02:18:42;4.88;;;1.52;;
24151;SDS011;12311;50.866;4.332;2023-06-24T02:21:09;3.05;;;1.80;;
24151;SDS011;12311;50.866;4.332;2023-06-24T02:23:35;1.77;;;1.35;;
24151;SDS011;12311;50.866;4.332;2023-06-24T02:26:02;3.55;;;1.50;;
24151;SDS011;12311;50.866;4.332;2023-06-24T02:28:31;4.20;;;2.00;;
24151;SDS011;12311;50.866;4.332;2023-06-24T02:30:58;4.07;;;1.98;;
24151;SDS011;12311;50.866;4.332;2023-06-24T02:33:24;3.53;;;1.70;;
24151;SDS011;12311;50.866;4.332;2023-06-24T02:35:51;8.65;;;1.80;;
24151;SDS011;12311;50.866;4.332;2023-06-24T02:38:17;4.18;;;1.73;;
24151;SDS011;12311;50.866;4.332;2023-06-24T02:40:43;4.45;;;2.15;;
24151;SDS011;12311;50.866;4.332;2023-06-24T02:43:12;4.47;;;1.70;;
24151;SDS011;12311;50.866;4.332;2023-06-24T02:45:38;7.93;;;1.88;;
24151;SDS011;12311;50.866;4.332;2023-06-24T02:48:05;4.53;;;1.88;;
24151;SDS011;12311;50.866;4.332;2023-06-24T02:50:33;6.47;;;1.63;;
24151;SDS011;12311;50.866;4.332;2023-06-24T02:52:59;3.42;;;1.40;;
24151;SDS011;12311;50.866;4.332;2023-06-24T02:55:26;3.35;;;1.95;;
24151;SDS011;12311;50.866;4.332;2023-06-24T02:57:52;4.63;;;1.70;;
24151;SDS011;12311;50.866;4.332;2023-06-24T03:00:18;2.63;;;1.67;;
24151;SDS011;12311;50.866;4.332;2023-06-24T03:02:45;3.72;;;1.42;;
24151;SDS011;12311;50.866;4.332;2023-06-24T03:05:13;4.30;;;1.70;;
24151;SDS011;12311;50.866;4.332;2023-06-24T03:07:40;3.58;;;1.50;;
24151;SDS011;12311;50.866;4.332;2023-06-24T03:10:07;5.05;;;1.88;;
24151;SDS011;12311;50.866;4.332;2023-06-24T03:12:33;2.92;;;1.67;;
24151;SDS011;12311;50.866;4.332;2023-06-24T03:14:58;4.50;;;1.77;;
24151;SDS011;12311;50.866;4.332;2023-06-24T03:17:25;4.03;;;1.50;;
24151;SDS011;12311;50.866;4.332;2023-06-24T03:19:51;3.15;;;1.45;;
24151;SDS011;12311;50.866;4.332;2023-06-24T03:22:17;5.32;;;1.45;;
24151;SDS011;12311;50.866;4.332;2023-06-24T03:24:43;3.28;;;1.83;;
24151;SDS011;12311;50.866;4.332;2023-06-24T03:27:08;2.78;;;1.40;;
24151;SDS011;12311;50.866;4.332;2023-06-24T03:29:34;4.60;;;2.13;;
24151;SDS011;12311;50.866;4.332;2023-06-24T03:32:00;4.47;;;1.90;;
24151;SDS011;12311;50.866;4.332;2023-06-24T03:34:26;2.45;;;1.65;;
24151;SDS011;12311;50.866;4.332;2023-06-24T03:36:54;3.13;;;1.40;;
24151;SDS011;12311;50.866;4.332;2023-06-24T03:39:20;4.55;;;1.75;;
24151;SDS011;12311;50.866;4.332;2023-06-24T03:41:46;3.25;;;1.45;;
24151;SDS011;12311;50.866;4.332;2023-06-24T03:44:12;3.78;;;1.70;;
24151;SDS011;12311;50.866;4.332;2023-06-24T03:46:38;4.45;;;1.60;;
24151;SDS011;12311;50.866;4.332;2023-06-24T03:49:03;4.38;;;2.38;;
24151;SDS011;12311;50.866;4.332;2023-06-24T03:51:29;3.47;;;1.88;;
24151;SDS011;12311;50.866;4.332;2023-06-24T03:53:56;2.65;;;1.23;;
24151;SDS011;12311;50.866;4.332;2023-06-24T03:56:22;6.00;;;1.95;;
24151;SDS011;12311;50.866;4.332;2023-06-24T03:58:47;4.05;;;1.73;;
24151;SDS011;12311;50.866;4.332;2023-06-24T04:01:13;3.75;;;1.50;;
24151;SDS011;12311;50.866;4.332;2023-06-24T04:03:39;7.07;;;2.50;;
24151;SDS011;12311;50.866;4.332;2023-06-24T04:06:04;4.80;;;1.75;;
24151;SDS011;12311;50.866;4.332;2023-06-24T04:08:30;3.90;;;2.30;;
24151;SDS011;12311;50.866;4.332;2023-06-24T04:10:59;4.63;;;1.50;;
24151;SDS011;12311;50.866;4.332;2023-06-24T04:13:25;4.65;;;1.70;;
24151;SDS011;12311;50.866;4.332;2023-06-24T04:15:51;5.90;;;2.00;;
24151;SDS011;12311;50.866;4.332;2023-06-24T04:18:17;8.68;;;2.55;;
24151;SDS011;12311;50.866;4.332;2023-06-24T04:20:43;5.22;;;2.28;;
24151;SDS011;12311;50.866;4.332;2023-06-24T04:23:09;5.68;;;1.48;;
24151;SDS011;12311;50.866;4.332;2023-06-24T04:25:36;4.85;;;2.03;;
24151;SDS011;12311;50.866;4.332;2023-06-24T04:28:02;4.55;;;2.17;;
24151;SDS011;12311;50.866;4.332;2023-06-24T04:30:29;3.72;;;2.10;;
24151;SDS011;12311;50.866;4.332;2023-06-24T04:32:56;3.42;;;2.10;;
24151;SDS011;12311;50.866;4.332;2023-06-24T04:35:21;5.53;;;2.28;;
24151;SDS011;12311;50.866;4.332;2023-06-24T04:37:47;2.88;;;1.52;;
24151;SDS011;12311;50.866;4.332;2023-06-24T04:40:15;4.65;;;1.45;;
24151;SDS011;12311;50.866;4.332;2023-06-24T04:42:44;4.95;;;1.60;;
24151;SDS011;12311;50.866;4.332;2023-06-24T04:45:13;5.13;;;2.03;;
24151;SDS011;12311;50.866;4.332;2023-06-24T04:47:40;4.95;;;2.33;;
24151;SDS011;12311;50.866;4.332;2023-06-24T04:50:05;4.90;;;2.13;;
24151;SDS011;12311;50.866;4.332;2023-06-24T04:52:34;2.03;;;1.15;;
24151;SDS011;12311;50.866;4.332;2023-06-24T04:55:00;4.45;;;1.50;;
24151;SDS011;12311;50.866;4.332;2023-06-24T04:57:27;6.78;;;1.92;;
24151;SDS011;12311;50.866;4.332;2023-06-24T04:59:53;4.65;;;2.03;;
24151;SDS011;12311;50.866;4.332;2023-06-24T05:02:19;3.45;;;1.30;;
24151;SDS011;12311;50.866;4.332;2023-06-24T05:04:45;9.18;;;2.00;;
24151;SDS011;12311;50.866;4.332;2023-06-24T05:07:11;4.13;;;1.52;;
24151;SDS011;12311;50.866;4.332;2023-06-24T05:09:37;2.75;;;1.60;;
24151;SDS011;12311;50.866;4.332;2023-06-24T05:12:06;5.68;;;2.53;;
24151;SDS011;12311;50.866;4.332;2023-06-24T05:14:36;6.35;;;1.38;;
24151;SDS011;12311;50.866;4.332;2023-06-24T05:17:04;3.90;;;1.77;;
24151;SDS011;12311;50.866;4.332;2023-06-24T05:19:31;3.90;;;1.35;;
24151;SDS011;12311;50.866;4.332;2023-06-24T05:21:57;3.45;;;1.88;;
24151;SDS011;12311;50.866;4.332;2023-06-24T05:24:23;3.42;;;1.88;;
24151;SDS011;12311;50.866;4.332;2023-06-24T05:26:49;5.10;;;2.08;;
24151;SDS011;12311;50.866;4.332;2023-06-24T05:29:16;6.53;;;2.00;;
24151;SDS011;12311;50.866;4.332;2023-06-24T05:31:42;4.22;;;1.77;;
24151;SDS011;12311;50.866;4.332;2023-06-24T05:34:09;3.28;;;1.45;;
24151;SDS011;12311;50.866;4.332;2023-06-24T05:36:35;8.70;;;2.15;;
24151;SDS011;12311;50.866;4.332;2023-06-24T05:39:01;3.10;;;1.75;;
24151;SDS011;12311;50.866;4.332;2023-06-24T05:41:27;2.15;;;0.98;;
24151;SDS011;12311;50.866;4.332;2023-06-24T05:44:06;3.03;;;1.20;;
24151;SDS011;12311;50.866;4.332;2023-06-24T05:46:32;8.95;;;1.98;;
24151;SDS011;12311;50.866;4.332;2023-06-24T05:48:58;2.08;;;1.45;;
24151;SDS011;12311;50.866;4.332;2023-06-24T05:51:24;2.80;;;1.48;;
24151;SDS011;12311;50.866;4.332;2023-06-24T05:53:50;2.92;;;1.48;;
24151;SDS011;12311;50.866;4.332;2023-06-24T05:56:16;2.33;;;1.30;;
24151;SDS011;12311;50.866;4.332;2023-06-24T05:58:41;5.78;;;1.40;;
24151;SDS011;12311;50.866;4.332;2023-06-24T06:01:08;6.20;;;2.38;;
24151;SDS011;12311;50.866;4.332;2023-06-24T06:03:34;2.97;;;1.38;;
24151;SDS011;12311;50.866;4.332;2023-06-24T06:06:00;4.20;;;1.33;;
24151;SDS011;12311;50.866;4.332;2023-06-24T06:08:26;4.22;;;1.98;;
24151;SDS011;12311;50.866;4.332;2023-06-24T06:10:51;2.83;;;1.15;;
24151;SDS011;12311;50.866;4.332;2023-06-24T06:13:17;3.22;;;1.40;;
24151;SDS011;12311;50.866;4.332;2023-06-24T06:15:43;2.75;;;1.30;;
24151;SDS011;12311;50.866;4.332;2023-06-24T06:18:08;3.92;;;1.40;;
24151;SDS011;12311;50.866;4.332;2023-06-24T06:20:34;3.53;;;1.27;;
24151;SDS011;12311;50.866;4.332;2023-06-24T06:22:59;2.92;;;1.60;;
24151;SDS011;12311;50.866;4.332;2023-06-24T06:25:25;3.22;;;1.10;;
24151;SDS011;12311;50.866;4.332;2023-06-24T06:27:51;3.05;;;1.50;;
24151;SDS011;12311;50.866;4.332;2023-06-24T06:30:16;4.07;;;1.25;;
24151;SDS011;12311;50.866;4.332;2023-06-24T06:32:42;4.35;;;1.45;;
24151;SDS011;12311;50.866;4.332;2023-06-24T06:35:08;2.85;;;1.20;;
24151;SDS011;12311;50.866;4.332;2023-06-24T06:37:34;4.10;;;1.17;;
24151;SDS011;12311;50.866;4.332;2023-06-24T06:39:59;4.50;;;1.50;;
24151;SDS011;12311;50.866;4.332;2023-06-24T06:42:25;1.75;;;0.93;;
24151;SDS011;12311;50.866;4.332;2023-06-24T06:44:51;3.70;;;1.35;;
24151;SDS011;12311;50.866;4.332;2023-06-24T06:47:16;2.83;;;1.33;;
24151;SDS011;12311;50.866;4.332;2023-06-24T06:49:42;3.45;;;1.55;;
24151;SDS011;12311;50.866;4.332;2023-06-24T06:52:08;7.57;;;1.23;;
24151;SDS011;12311;50.866;4.332;2023-06-24T06:54:34;1.42;;;0.82;;
24151;SDS011;12311;50.866;4.332;2023-06-24T06:57:03;4.45;;;1.20;;
24151;SDS011;12311;50.866;4.332;2023-06-24T06:59:29;4.22;;;1.38;;
24151;SDS011;12311;50.866;4.332;2023-06-24T07:01:55;5.28;;;1.25;;
24151;SDS011;12311;50.866;4.332;2023-06-24T07:04:21;3.90;;;1.00;;
24151;SDS011;12311;50.866;4.332;2023-06-24T07:06:47;2.17;;;1.23;;
24151;SDS011;12311;50.866;4.332;2023-06-24T07:09:13;3.60;;;1.38;;
24151;SDS011;12311;50.866;4.332;2023-06-24T07:11:40;3.08;;;1.48;;
24151;SDS011;12311;50.866;4.332;2023-06-24T07:14:06;3.67;;;1.10;;
24151;SDS011;12311;50.866;4.332;2023-06-24T07:16:31;1.77;;;1.00;;
24151;SDS011;12311;50.866;4.332;2023-06-24T07:18:57;2.78;;;1.30;;
24151;SDS011;12311;50.866;4.332;2023-06-24T07:21:23;3.47;;;1.30;;
24151;SDS011;12311;50.866;4.332;2023-06-24T07:23:48;2.28;;;0.88;;
24151;SDS011;12311;50.866;4.332;2023-06-24T07:26:14;1.88;;;1.00;;
24151;SDS011;12311;50.866;4.332;2023-06-24T07:28:40;1.52;;;1.00;;
24151;SDS011;12311;50.866;4.332;2023-06-24T07:31:05;2.47;;;1.05;;
24151;SDS011;12311;50.866;4.332;2023-06-24T07:33:31;3.20;;;0.93;;
24151;SDS011;12311;50.866;4.332;2023-06-24T07:35:57;2.40;;;1.33;;
24151;SDS011;12311;50.866;4.332;2023-06-24T07:38:22;2.40;;;1.08;;
24151;SDS011;12311;50.866;4.332;2023-06-24T07:40:48;2.08;;;0.80;;
24151;SDS011;12311;50.866;4.332;2023-06-24T07:43:14;2.28;;;1.33;;
24151;SDS011;12311;50.866;4.332;2023-06-24T07:45:39;2.95;;;1.20;;
24151;SDS011;12311;50.866;4.332;2023-06-24T07:48:05;2.13;;;0.90;;
24151;SDS011;12311;50.866;4.332;2023-06-24T07:50:32;3.10;;;1.13;;
24151;SDS011;12311;50.866;4.332;2023-06-24T07:52:59;3.03;;;0.90;;
24151;SDS011;12311;50.866;4.332;2023-06-24T07:55:24;1.25;;;0.88;;
24151;SDS011;12311;50.866;4.332;2023-06-24T07:57:50;1.98;;;1.17;;
24151;SDS011;12311;50.866;4.332;2023-06-24T08:00:16;2.10;;;1.00;;
24151;SDS011;12311;50.866;4.332;2023-06-24T08:02:42;1.85;;;1.15;;
24151;SDS011;12311;50.866;4.332;2023-06-24T08:05:08;3.45;;;0.75;;
24151;SDS011;12311;50.866;4.332;2023-06-24T08:07:39;2.42;;;1.27;;
24151;SDS011;12311;50.866;4.332;2023-06-24T08:10:05;2.33;;;1.52;;
24151;SDS011;12311;50.866;4.332;2023-06-24T08:12:31;2.40;;;0.80;;
24151;SDS011;12311;50.866;4.332;2023-06-24T08:14:57;2.55;;;0.98;;
24151;SDS011;12311;50.866;4.332;2023-06-24T08:17:22;4.80;;;0.98;;
24151;SDS011;12311;50.866;4.332;2023-06-24T08:19:48;1.40;;;0.85;;
24151;SDS011;12311;50.866;4.332;2023-06-24T08:22:14;2.88;;;1.17;;
24151;SDS011;12311;50.866;4.332;2023-06-24T08:24:40;1.27;;;0.77;;
24151;SDS011;12311;50.866;4.332;2023-06-24T08:27:05;2.03;;;0.73;;
24151;SDS011;12311;50.866;4.332;2023-06-24T08:29:31;2.72;;;0.88;;
24151;SDS011;12311;50.866;4.332;2023-06-24T08:31:56;0.90;;;0.60;;
24151;SDS011;12311;50.866;4.332;2023-06-24T08:34:22;2.35;;;0.88;;
24151;SDS011;12311;50.866;4.332;2023-06-24T08:36:48;2.42;;;0.90;;
24151;SDS011;12311;50.866;4.332;2023-06-24T08:39:13;1.63;;;0.95;;
24151;SDS011;12311;50.866;4.332;2023-06-24T08:41:39;1.05;;;0.70;;
24151;SDS011;12311;50.866;4.332;2023-06-24T08:44:05;0.68;;;0.50;;
24151;SDS011;12311;50.866;4.332;2023-06-24T08:46:30;2.78;;;1.02;;
24151;SDS011;12311;50.866;4.332;2023-06-24T08:49:25;1.15;;;0.80;;
24151;SDS011;12311;50.866;4.332;2023-06-24T08:51:46;2.65;;;0.75;;
24151;SDS011;12311;50.866;4.332;2023-06-24T08:54:24;7.05;;;1.50;;
24151;SDS011;12311;50.866;4.332;2023-06-24T08:56:51;1.70;;;0.90;;
24151;SDS011;12311;50.866;4.332;2023-06-24T08:59:18;1.63;;;0.90;;
24151;SDS011;12311;50.866;4.332;2023-06-24T09:01:48;1.40;;;0.80;;
24151;SDS011;12311;50.866;4.332;2023-06-24T09:04:15;2.60;;;0.98;;
24151;SDS011;12311;50.866;4.332;2023-06-24T09:06:40;1.63;;;0.75;;
24151;SDS011;12311;50.866;4.332;2023-06-24T09:09:16;1.40;;;0.70;;
24151;SDS011;12311;50.866;4.332;2023-06-24T09:11:52;2.28;;;0.50;;
24151;SDS011;12311;50.866;4.332;2023-06-24T09:14:22;3.47;;;0.50;;
24151;SDS011;12311;50.866;4.332;2023-06-24T09:16:53;0.77;;;0.73;;
24151;SDS011;12311;50.866;4.332;2023-06-24T09:19:24;1.50;;;0.55;;
24151;SDS011;12311;50.866;4.332;2023-06-24T09:21:54;1.20;;;0.45;;
24151;SDS011;12311;50.866;4.332;2023-06-24T09:24:20;1.10;;;0.57;;
24151;SDS011;12311;50.866;4.332;2023-06-24T09:26:46;1.63;;;0.85;;
24151;SDS011;12311;50.866;4.332;2023-06-24T09:29:12;1.58;;;1.10;;
24151;SDS011;12311;50.866;4.332;2023-06-24T09:31:45;4.47;;;1.10;;
24151;SDS011;12311;50.866;4.332;2023-06-24T09:34:13;0.70;;;0.40;;
24151;SDS011;12311;50.866;4.332;2023-06-24T09:36:43;6.03;;;1.17;;
24151;SDS011;12311;50.866;4.332;2023-06-24T09:39:12;2.38;;;0.70;;
24151;SDS011;12311;50.866;4.332;2023-06-24T09:41:41;1.50;;;0.57;;
24151;SDS011;12311;50.866;4.332;2023-06-24T09:44:11;1.42;;;0.75;;
24151;SDS011;12311;50.866;4.332;2023-06-24T09:46:39;1.50;;;0.70;;
24151;SDS011;12311;50.866;4.332;2023-06-24T09:49:07;1.98;;;0.68;;
24151;SDS011;12311;50.866;4.332;2023-06-24T09:51:35;1.90;;;0.90;;
24151;SDS011;12311;50.866;4.332;2023-06-24T09:54:05;0.73;;;0.52;;
24151;SDS011;12311;50.866;4.332;2023-06-24T09:56:33;1.35;;;0.75;;
24151;SDS011;12311;50.866;4.332;2023-06-24T09:59:03;1.23;;;0.60;;
24151;SDS011;12311;50.866;4.332;2023-06-24T10:01:30;0.88;;;0.60;;
24151;SDS011;12311;50.866;4.332;2023-06-24T10:04:05;1.17;;;0.47;;
24151;SDS011;12311;50.866;4.332;2023-06-24T10:06:34;1.38;;;0.82;;
24151;SDS011;12311;50.866;4.332;2023-06-24T10:09:00;6.65;;;1.40;;
24151;SDS011;12311;50.866;4.332;2023-06-24T10:11:27;1.58;;;0.50;;
24151;SDS011;12311;50.866;4.332;2023-06-24T10:13:53;1.27;;;0.60;;
24151;SDS011;12311;50.866;4.332;2023-06-24T10:16:19;1.45;;;0.60;;
24151;SDS011;12311;50.866;4.332;2023-06-24T10:18:45;0.95;;;0.80;;
24151;SDS011;12311;50.866;4.332;2023-06-24T10:21:11;1.10;;;0.63;;
24151;SDS011;12311;50.866;4.332;2023-06-24T10:26:35;2.88;;;0.80;;
24151;SDS011;12311;50.866;4.332;2023-06-24T10:37:02;6.00;;;0.80;;
24151;SDS011;12311;50.866;4.332;2023-06-24T10:44:50;1.77;;;0.77;;
24151;SDS011;12311;50.866;4.332;2023-06-24T10:47:17;1.10;;;0.90;;
24151;SDS011;12311;50.866;4.332;2023-06-24T10:49:43;2.65;;;0.70;;
24151;SDS011;12311;50.866;4.332;2023-06-24T10:52:09;0.93;;;0.70;;
24151;SDS011;12311;50.866;4.332;2023-06-24T10:54:39;0.98;;;0.52;;
24151;SDS011;12311;50.866;4.332;2023-06-24T10:57:06;1.48;;;0.65;;
24151;SDS011;12311;50.866;4.332;2023-06-24T10:59:35;1.13;;;0.82;;
24151;SDS011;12311;50.866;4.332;2023-06-24T11:02:05;1.75;;;0.65;;
24151;SDS011;12311;50.866;4.332;2023-06-24T11:04:32;0.98;;;0.60;;
24151;SDS011;12311;50.866;4.332;2023-06-24T11:06:58;0.68;;;0.50;;
24151;SDS011;12311;50.866;4.332;2023-06-24T11:09:25;1.02;;;0.60;;
24151;SDS011;12311;50.866;4.332;2023-06-24T11:11:51;1.55;;;0.75;;
24151;SDS011;12311;50.866;4.332;2023-06-24T11:14:17;1.05;;;0.80;;
24151;SDS011;12311;50.866;4.332;2023-06-24T11:16:47;1.58;;;0.60;;
24151;SDS011;12311;50.866;4.332;2023-06-24T11:19:14;1.42;;;0.60;;
24151;SDS011;12311;50.866;4.332;2023-06-24T11:21:40;1.33;;;0.50;;
24151;SDS011;12311;50.866;4.332;2023-06-24T11:24:06;0.93;;;0.70;;
24151;SDS011;12311;50.866;4.332;2023-06-24T11:26:32;2.88;;;0.65;;
24151;SDS011;12311;50.866;4.332;2023-06-24T11:28:58;1.08;;;0.73;;
24151;SDS011;12311;50.866;4.332;2023-06-24T11:31:25;0.85;;;0.50;;
24151;SDS011;12311;50.866;4.332;2023-06-24T11:33:51;1.25;;;0.63;;
24151;SDS011;12311;50.866;4.332;2023-06-24T11:36:20;0.73;;;0.60;;
24151;SDS011;12311;50.866;4.332;2023-06-24T11:38:47;1.03;;;0.70;;
24151;SDS011;12311;50.866;4.332;2023-06-24T11:41:13;0.75;;;0.52;;
24151;SDS011;12311;50.866;4.332;2023-06-24T11:43:46;0.70;;;0.60;;
24151;SDS011;12311;50.866;4.332;2023-06-24T11:46:23;3.40;;;0.80;;
24151;SDS011;12311;50.866;4.332;2023-06-24T11:48:49;0.93;;;0.82;;
24151;SDS011;12311;50.866;4.332;2023-06-24T11:51:15;1.00;;;0.60;;
24151;SDS011;12311;50.866;4.332;2023-06-24T11:53:44;1.10;;;0.63;;
24151;SDS011;12311;50.866;4.332;2023-06-24T11:56:12;2.35;;;0.57;;
24151;SDS011;12311;50.866;4.332;2023-06-24T11:58:38;0.90;;;0.50;;
24151;SDS011;12311;50.866;4.332;2023-06-24T12:01:08;1.42;;;0.70;;
24151;SDS011;12311;50.866;4.332;2023-06-24T12:03:34;1.08;;;0.80;;
24151;SDS011;12311;50.866;4.332;2023-06-24T12:06:00;1.33;;;0.60;;
24151;SDS011;12311;50.866;4.332;2023-06-24T12:08:25;1.00;;;0.55;;
24151;SDS011;12311;50.866;4.332;2023-06-24T12:10:51;1.27;;;0.57;;
24151;SDS011;12311;50.866;4.332;2023-06-24T12:13:17;0.65;;;0.40;;
24151;SDS011;12311;50.866;4.332;2023-06-24T12:15:43;1.10;;;0.60;;
24151;SDS011;12311;50.866;4.332;2023-06-24T12:18:09;1.20;;;0.70;;
24151;SDS011;12311;50.866;4.332;2023-06-24T12:20:34;1.02;;;0.52;;
24151;SDS011;12311;50.866;4.332;2023-06-24T12:23:01;1.17;;;0.55;;
24151;SDS011;12311;50.866;4.332;2023-06-24T12:25:30;4.32;;;0.43;;
24151;SDS011;12311;50.866;4.332;2023-06-24T12:27:56;0.82;;;0.60;;
24151;SDS011;12311;50.866;4.332;2023-06-24T12:30:21;0.90;;;0.77;;
24151;SDS011;12311;50.866;4.332;2023-06-24T12:32:49;1.85;;;0.50;;
24151;SDS011;12311;50.866;4.332;2023-06-24T12:35:16;2.00;;;0.55;;
24151;SDS011;12311;50.866;4.332;2023-06-24T12:37:41;1.48;;;0.70;;
24151;SDS011;12311;50.866;4.332;2023-06-24T12:40:07;0.85;;;0.50;;
24151;SDS011;12311;50.866;4.332;2023-06-24T12:42:33;0.93;;;0.50;;
24151;SDS011;12311;50.866;4.332;2023-06-24T12:44:59;0.73;;;0.40;;
24151;SDS011;12311;50.866;4.332;2023-06-24T12:47:25;1.00;;;0.70;;
24151;SDS011;12311;50.866;4.332;2023-06-24T12:49:51;0.75;;;0.60;;
24151;SDS011;12311;50.866;4.332;2023-06-24T12:52:18;0.40;;;0.40;;
24151;SDS011;12311;50.866;4.332;2023-06-24T12:54:44;1.85;;;1.02;;
24151;SDS011;12311;50.866;4.332;2023-06-24T12:57:09;1.13;;;0.70;;
24151;SDS011;12311;50.866;4.332;2023-06-24T12:59:35;4.07;;;0.88;;
24151;SDS011;12311;50.866;4.332;2023-06-24T13:02:01;2.15;;;0.80;;
24151;SDS011;12311;50.866;4.332;2023-06-24T13:04:27;2.22;;;0.50;;
24151;SDS011;12311;50.866;4.332;2023-06-24T13:06:52;1.08;;;0.80;;
24151;SDS011;12311;50.866;4.332;2023-06-24T13:09:18;2.13;;;0.73;;
24151;SDS011;12311;50.866;4.332;2023-06-24T13:11:44;4.75;;;0.82;;
24151;SDS011;12311;50.866;4.332;2023-06-24T13:14:10;1.08;;;0.75;;
24151;SDS011;12311;50.866;4.332;2023-06-24T13:16:36;0.90;;;0.57;;
24151;SDS011;12311;50.866;4.332;2023-06-24T13:19:02;0.70;;;0.40;;
24151;SDS011;12311;50.866;4.332;2023-06-24T13:21:28;0.30;;;0.30;;
24151;SDS011;12311;50.866;4.332;2023-06-24T13:23:53;1.83;;;0.45;;
24151;SDS011;12311;50.866;4.332;2023-06-24T13:26:19;0.50;;;0.50;;
24151;SDS011;12311;50.866;4.332;2023-06-24T13:28:45;1.17;;;0.50;;
24151;SDS011;12311;50.866;4.332;2023-06-24T13:31:10;0.43;;;0.43;;
24151;SDS011;12311;50.866;4.332;2023-06-24T13:33:36;2.05;;;0.40;;
24151;SDS011;12311;50.866;4.332;2023-06-24T13:36:03;0.82;;;0.50;;
24151;SDS011;12311;50.866;4.332;2023-06-24T13:38:29;2.38;;;0.60;;
24151;SDS011;12311;50.866;4.332;2023-06-24T13:40:55;1.25;;;0.55;;
24151;SDS011;12311;50.866;4.332;2023-06-24T13:43:21;1.08;;;0.70;;
24151;SDS011;12311;50.866;4.332;2023-06-24T13:45:47;1.98;;;0.75;;
24151;SDS011;12311;50.866;4.332;2023-06-24T13:48:12;0.90;;;0.60;;
24151;SDS011;12311;50.866;4.332;2023-06-24T13:50:39;3.13;;;0.80;;
24151;SDS011;12311;50.866;4.332;2023-06-24T13:53:04;1.13;;;0.85;;
24151;SDS011;12311;50.866;4.332;2023-06-24T13:55:30;1.52;;;0.60;;
24151;SDS011;12311;50.866;4.332;2023-06-24T13:57:57;2.80;;;1.00;;
24151;SDS011;12311;50.866;4.332;2023-06-24T14:00:22;1.42;;;0.95;;
24151;SDS011;12311;50.866;4.332;2023-06-24T14:02:48;1.20;;;0.73;;
24151;SDS011;12311;50.866;4.332;2023-06-24T14:05:14;1.08;;;0.60;;
24151;SDS011;12311;50.866;4.332;2023-06-24T14:07:39;2.67;;;0.80;;
24151;SDS011;12311;50.866;4.332;2023-06-24T14:10:05;0.77;;;0.40;;
24151;SDS011;12311;50.866;4.332;2023-06-24T14:12:31;1.42;;;0.45;;
24151;SDS011;12311;50.866;4.332;2023-06-24T14:14:57;0.63;;;0.45;;
24151;SDS011;12311;50.866;4.332;2023-06-24T14:17:23;1.55;;;0.60;;
24151;SDS011;12311;50.866;4.332;2023-06-24T14:19:49;1.13;;;0.55;;
24151;SDS011;12311;50.866;4.332;2023-06-24T14:22:15;0.82;;;0.60;;
24151;SDS011;12311;50.866;4.332;2023-06-24T14:24:42;1.10;;;0.65;;
24151;SDS011;12311;50.866;4.332;2023-06-24T14:27:08;1.52;;;0.75;;
24151;SDS011;12311;50.866;4.332;2023-06-24T14:29:34;0.57;;;0.50;;
24151;SDS011;12311;50.866;4.332;2023-06-24T14:31:59;1.33;;;0.52;;
24151;SDS011;12311;50.866;4.332;2023-06-24T14:34:25;1.48;;;0.50;;
24151;SDS011;12311;50.866;4.332;2023-06-24T14:36:54;1.88;;;0.52;;
24151;SDS011;12311;50.866;4.332;2023-06-24T14:39:20;0.90;;;0.50;;
24151;SDS011;12311;50.866;4.332;2023-06-24T14:41:46;0.82;;;0.50;;
24151;SDS011;12311;50.866;4.332;2023-06-24T14:44:11;0.60;;;0.40;;
24151;SDS011;12311;50.866;4.332;2023-06-24T14:46:37;1.02;;;0.60;;
24151;SDS011;12311;50.866;4.332;2023-06-24T14:49:03;0.75;;;0.43;;
24151;SDS011;12311;50.866;4.332;2023-06-24T14:51:28;1.33;;;0.63;;
24151;SDS011;12311;50.866;4.332;2023-06-24T14:53:54;0.60;;;0.50;;
24151;SDS011;12311;50.866;4.332;2023-06-24T14:56:19;1.35;;;0.82;;
24151;SDS011;12311;50.866;4.332;2023-06-24T14:58:45;1.40;;;0.75;;
24151;SDS011;12311;50.866;4.332;2023-06-24T15:01:11;0.65;;;0.47;;
24151;SDS011;12311;50.866;4.332;2023-06-24T15:03:36;0.47;;;0.43;;
24151;SDS011;12311;50.866;4.332;2023-06-24T15:06:02;1.13;;;0.50;;
24151;SDS011;12311;50.866;4.332;2023-06-24T15:08:28;0.57;;;0.50;;
24151;SDS011;12311;50.866;4.332;2023-06-24T15:10:54;0.55;;;0.40;;
24151;SDS011;12311;50.866;4.332;2023-06-24T15:13:19;1.77;;;0.50;;